Time;durP1;ratioP1;P1;durP2;ratioP2;P2;SDS_P1;SDS_P2;PMS_P1;PMS_P2;Temp;Humidity;BMP_temperature;BMP_pressure;BME280_temperature;BME280_humidity;BME280_pressure;Samples;Min_cycle;Max_cycle;Signal;HPM_P1;HPM_P2
2022/05/13 00:01:36;;;;;;;6.15;1.52;;;;;;;11.40;59.20;101717.78;5030496;28;20046;-67
2022/05/13 00:04:06;;;;;;;4.55;1.45;;;;;;;11.33;58.94;101703.84;5015651;28;20054;-68
2022/05/13 00:06:34;;;;;;;5.20;1.38;;;;;;;11.28;58.62;101705.69;5038447;28;20069;-67
2022/05/13 00:09:01;;;;;;;5.15;1.30;;;;;;;11.20;58.79;101705.84;5014183;28;20034;-67
2022/05/13 00:11:29;;;;;;;6.63;1.73;;;;;;;11.13;58.92;101706.84;5034061;28;20046;-68
2022/05/13 00:13:56;;;;;;;7.40;1.35;;;;;;;11.09;59.35;101700.78;5029443;28;20523;-68
2022/05/13 00:16:23;;;;;;;5.85;1.70;;;;;;;11.07;59.23;101697.28;5029478;28;20065;-67
2022/05/13 00:18:51;;;;;;;5.38;1.40;;;;;;;11.07;59.48;101696.44;5019830;28;21057;-68
2022/05/13 00:21:18;;;;;;;6.55;1.45;;;;;;;11.08;60.28;101690.25;5017711;28;20072;-68
2022/05/13 00:23:45;;;;;;;10.68;1.63;;;;;;;11.09;60.38;101692.00;5024845;28;20123;-67
2022/05/13 00:26:12;;;;;;;5.35;1.40;;;;;;;11.09;60.29;101695.50;5016378;28;20475;-67
2022/05/13 00:28:40;;;;;;;6.70;1.45;;;;;;;11.10;60.63;101691.06;5012972;28;20049;-68
2022/05/13 00:31:07;;;;;;;7.50;1.75;;;;;;;11.11;60.66;101692.81;5016794;28;20042;-68
2022/05/13 00:33:34;;;;;;;8.90;2.00;;;;;;;11.11;60.58;101692.81;5013929;28;20077;-69
2022/05/13 00:36:02;;;;;;;7.85;1.67;;;;;;;11.12;61.14;101692.81;5013276;28;20049;-69
2022/05/13 00:38:28;;;;;;;7.32;1.77;;;;;;;11.12;60.75;101697.19;5020201;28;20049;-67
2022/05/13 00:40:57;;;;;;;8.15;1.83;;;;;;;11.12;61.34;101689.28;5015463;28;20042;-69
2022/05/13 00:43:41;;;;;;;6.40;1.50;;;;;;;11.09;60.97;101692.00;5014568;28;20039;-68
2022/05/13 00:46:08;;;;;;;6.30;1.75;;;;;;;11.05;60.96;101699.06;5014390;28;20057;-68
2022/05/13 00:48:36;;;;;;;5.38;1.77;;;;;;;11.03;61.12;101691.19;5013774;28;20041;-69
2022/05/13 00:51:07;;;;;;;5.85;1.55;;;;;;;11.02;61.15;101678.06;5011320;28;20097;-68
2022/05/13 00:53:35;;;;;;;7.20;1.52;;;;;;;11.00;61.46;101685.13;5013951;28;20046;-68
2022/05/13 00:56:04;;;;;;;8.27;1.67;;;;;;;10.99;61.64;101678.94;5013053;28;20043;-68
2022/05/13 00:58:35;;;;;;;7.38;1.80;;;;;;;10.99;61.57;101683.38;5016164;28;20090;-69
2022/05/13 01:01:04;;;;;;;6.25;1.38;;;;;;;10.96;61.57;101681.66;5013198;28;20057;-67
2022/05/13 01:03:37;;;;;;;6.07;1.60;;;;;;;10.94;62.53;101680.81;5045830;28;20526;-69
2022/05/13 01:06:13;;;;;;;6.75;1.80;;;;;;;10.95;62.53;101681.69;5030910;28;20042;-68
2022/05/13 01:08:41;;;;;;;7.22;1.92;;;;;;;10.92;63.45;101684.41;5026257;28;20072;-68
2022/05/13 01:11:16;;;;;;;8.80;1.80;;;;;;;10.90;62.72;101684.41;5030408;28;20053;-67
2022/05/13 01:13:59;;;;;;;6.88;1.80;;;;;;;10.88;62.86;101689.72;5022117;28;20047;-68
2022/05/13 01:16:27;;;;;;;6.32;1.65;;;;;;;10.84;62.84;101676.59;5012698;28;20660;-68
2022/05/13 01:18:55;;;;;;;7.68;2.03;;;;;;;10.83;62.84;101677.50;5017225;28;20042;-66
2022/05/13 01:21:29;;;;;;;6.70;1.80;;;;;;;10.82;63.71;101684.56;5022341;28;20500;-67
2022/05/13 01:23:56;;;;;;;7.63;1.80;;;;;;;10.79;63.97;101676.69;5021362;28;20050;-66
2022/05/13 01:26:26;;;;;;;7.50;1.77;;;;;;;10.80;63.83;101673.16;5023076;28;20042;-67
2022/05/13 01:28:56;;;;;;;6.10;1.70;;;;;;;10.77;63.70;101664.44;5012827;28;20077;-67
2022/05/13 01:31:31;;;;;;;8.25;1.83;;;;;;;10.77;63.65;101667.06;5015278;28;20046;-68
2022/05/13 01:34:11;;;;;;;6.13;1.83;;;;;;;10.78;64.44;101668.81;5023497;28;20069;-67
2022/05/13 01:36:41;;;;;;;10.32;1.95;;;;;;;10.76;63.79;101671.47;5013077;28;20046;-64
2022/05/13 01:39:08;;;;;;;4.88;1.33;;;;;;;10.73;64.17;101674.19;5018635;28;20042;-63
2022/05/13 01:41:36;;;;;;;12.43;2.25;;;;;;;10.70;64.30;101677.72;5016994;28;20196;-64
2022/05/13 01:44:04;;;;;;;7.80;1.85;;;;;;;10.68;64.42;101676.00;5014174;28;20535;-67
2022/05/13 01:46:32;;;;;;;6.10;2.20;;;;;;;10.65;64.92;101682.22;5016031;28;20042;-69
2022/05/13 01:49:00;;;;;;;11.20;2.13;;;;;;;10.61;64.92;101682.28;5021911;28;20053;-68
2022/05/13 01:51:27;;;;;;;9.15;2.13;;;;;;;10.57;64.98;101687.63;5015216;28;20045;-68
2022/05/13 01:53:54;;;;;;;6.40;2.15;;;;;;;10.51;65.12;101682.44;5015338;28;20427;-68
2022/05/13 01:56:21;;;;;;;7.93;2.22;;;;;;;10.48;65.09;101682.50;5026363;28;20049;-68
2022/05/13 01:58:48;;;;;;;8.45;1.90;;;;;;;10.45;65.41;101679.91;5016115;28;20042;-67
2022/05/13 02:01:16;;;;;;;9.10;2.03;;;;;;;10.43;65.35;101681.69;5025421;28;20061;-68
2022/05/13 02:03:46;;;;;;;9.05;2.20;;;;;;;10.42;66.42;101685.25;5032063;28;20587;-68
2022/05/13 02:06:22;;;;;;;4.78;1.70;;;;;;;10.42;65.72;101685.25;5029833;28;20092;-68
2022/05/13 02:08:54;;;;;;;7.93;2.00;;;;;;;10.43;65.61;101681.69;5028479;28;20496;-68
2022/05/13 02:11:23;;;;;;;5.55;1.77;;;;;;;10.48;65.68;101685.13;5011633;28;20043;-68
2022/05/13 02:13:53;;;;;;;10.18;2.05;;;;;;;10.55;65.48;101689.41;5011776;28;20034;-69
2022/05/13 02:16:21;;;;;;;5.90;2.10;;;;;;;10.65;65.26;101697.16;5017342;28;20046;-68
2022/05/13 02:18:49;;;;;;;5.82;1.90;;;;;;;10.70;64.99;101687.41;5016804;28;20038;-69
2022/05/13 02:21:17;;;;;;;7.10;2.20;;;;;;;10.75;64.83;101685.53;5013751;28;20046;-69
2022/05/13 02:23:46;;;;;;;6.15;2.08;;;;;;;10.76;65.00;101678.53;5020730;28;20567;-67
2022/05/13 02:26:16;;;;;;;11.07;2.17;;;;;;;10.71;64.35;101678.59;5020287;28;20046;-68
2022/05/13 02:28:44;;;;;;;5.13;1.90;;;;;;;10.67;64.39;101679.53;5025487;28;20041;-67
2022/05/13 02:31:13;;;;;;;8.18;2.15;;;;;;;10.62;64.71;101684.03;5012309;28;20042;-67
2022/05/13 02:33:45;;;;;;;7.53;2.05;;;;;;;10.57;64.60;101682.34;5024066;28;20046;-65
2022/05/13 02:36:15;;;;;;;10.80;2.00;;;;;;;10.61;64.60;101677.88;5016424;28;20042;-67
2022/05/13 02:38:42;;;;;;;7.30;1.75;;;;;;;10.65;64.57;101686.59;5021845;28;20054;-68
2022/05/13 02:41:12;;;;;;;5.45;1.70;;;;;;;10.61;64.40;101677.88;5014604;28;20039;-68
2022/05/13 02:43:52;;;;;;;6.78;1.77;;;;;;;10.57;64.39;101676.22;5015344;28;20042;-68
2022/05/13 02:46:24;;;;;;;7.30;1.95;;;;;;;10.51;64.47;101676.28;5016163;28;20039;-69
2022/05/13 02:48:52;;;;;;;8.02;1.90;;;;;;;10.48;64.87;101676.38;5020348;28;20052;-68
2022/05/13 02:51:21;;;;;;;9.20;2.08;;;;;;;10.47;64.89;101674.63;5026234;28;20030;-69
2022/05/13 02:53:49;;;;;;;7.15;1.90;;;;;;;10.43;64.58;101671.13;5028323;28;20038;-69
2022/05/13 02:56:17;;;;;;;8.75;1.90;;;;;;;10.41;64.67;101671.19;5016031;28;20046;-69
2022/05/13 02:58:46;;;;;;;6.75;1.77;;;;;;;10.42;65.03;101666.78;5023276;28;20441;-69
2022/05/13 03:01:16;;;;;;;5.88;2.00;;;;;;;10.42;65.42;101664.16;5016507;28;20119;-67
2022/05/13 03:03:47;;;;;;;9.52;2.33;;;;;;;10.41;65.20;101665.03;5019509;28;20041;-68
2022/05/13 03:06:15;;;;;;;10.18;2.50;;;;;;;10.37;65.86;101658.97;5020913;28;20515;-69
2022/05/13 03:08:43;;;;;;;8.00;2.22;;;;;;;10.40;65.55;101653.63;5021074;28;20042;-70
2022/05/13 03:11:10;;;;;;;5.22;1.90;;;;;;;10.45;65.56;101671.13;5015179;28;20050;-67
2022/05/13 03:13:37;;;;;;;9.75;2.20;;;;;;;10.48;65.21;101668.47;5018388;28;20034;-69
2022/05/13 03:16:14;;;;;;;9.93;2.17;;;;;;;10.56;65.38;101669.19;5020910;28;20437;-68
2022/05/13 03:18:42;;;;;;;10.70;2.38;;;;;;;10.59;65.52;101669.13;5024240;28;20504;-67
2022/05/13 03:21:10;;;;;;;9.15;3.33;;;;;;;10.63;65.34;101664.69;5029812;28;20045;-68
2022/05/13 03:23:42;;;;;;;9.77;2.65;;;;;;;10.66;65.29;101667.25;5019359;28;20046;-69
2022/05/13 03:26:15;;;;;;;5.57;2.10;;;;;;;10.66;65.55;101668.13;5020229;28;20046;-68
2022/05/13 03:28:43;;;;;;;14.70;3.00;;;;;;;10.68;65.32;101660.19;5029111;28;20100;-68
2022/05/13 03:31:12;;;;;;;6.05;2.45;;;;;;;10.71;65.84;101660.16;5033723;28;20104;-69
2022/05/13 03:33:40;;;;;;;7.57;2.33;;;;;;;10.76;65.70;101662.69;5017221;28;20050;-69
2022/05/13 03:36:10;;;;;;;9.48;2.80;;;;;;;10.78;65.90;101661.75;5014530;28;20038;-68
2022/05/13 03:38:37;;;;;;;7.70;2.72;;;;;;;10.78;66.16;101664.41;5021561;28;20164;-67
2022/05/13 03:41:04;;;;;;;8.07;2.83;;;;;;;10.74;65.96;101654.78;5030233;28;20046;-67
2022/05/13 03:43:31;;;;;;;8.25;3.00;;;;;;;10.74;66.07;101665.34;5013859;28;20042;-68
2022/05/13 03:45:58;;;;;;;7.90;2.70;;;;;;;10.70;66.14;101667.16;5014840;28;20043;-65
2022/05/13 03:48:25;;;;;;;9.98;2.70;;;;;;;10.69;66.65;101662.78;5014252;28;20069;-68
2022/05/13 03:50:53;;;;;;;8.75;2.75;;;;;;;10.67;66.71;101661.09;5013279;28;20034;-68
2022/05/13 03:53:20;;;;;;;10.98;2.53;;;;;;;10.66;66.58;101665.50;5028454;28;20038;-68
2022/05/13 03:55:47;;;;;;;8.93;2.70;;;;;;;10.66;66.25;101672.53;5014247;28;20070;-67
2022/05/13 03:58:15;;;;;;;11.63;2.67;;;;;;;10.66;66.31;101665.50;5014196;28;20042;-68
2022/05/13 04:00:43;;;;;;;17.70;3.35;;;;;;;10.66;66.63;101669.88;5025943;28;20034;-70
2022/05/13 04:03:10;;;;;;;8.20;2.95;;;;;;;10.65;66.45;101665.50;5030931;28;20038;-69
2022/05/13 04:11:10;;;;;;;18.02;4.03;;;;;;;10.69;67.57;101669.84;5014250;28;20046;-66
2022/05/13 04:16:24;;;;;;;11.90;3.20;;;;;;;10.79;67.61;101659.97;5017696;28;20042;-67
2022/05/13 04:18:53;;;;;;;14.35;3.65;;;;;;;10.78;67.50;101661.75;5014084;28;20484;-67
2022/05/13 04:21:32;;;;;;;10.18;3.17;;;;;;;10.75;66.87;101667.09;5013570;28;20051;-67
2022/05/13 04:24:06;;;;;;;11.95;4.07;;;;;;;10.73;67.33;101671.53;5013248;28;20533;-67
2022/05/13 04:26:34;;;;;;;9.82;3.70;;;;;;;10.72;67.72;101673.28;5012724;28;20034;-66
2022/05/13 04:29:02;;;;;;;15.15;3.72;;;;;;;10.72;67.75;101669.81;5024267;28;20042;-67
2022/05/13 04:31:33;;;;;;;17.15;3.85;;;;;;;10.71;68.22;101668.91;5025014;28;20497;-68
2022/05/13 04:34:01;;;;;;;10.55;3.85;;;;;;;10.69;68.06;101667.19;5019193;28;20048;-71
2022/05/13 04:36:28;;;;;;;12.63;3.83;;;;;;;10.67;68.91;101667.25;5014017;28;20043;-69
2022/05/13 04:38:56;;;;;;;17.17;4.63;;;;;;;10.68;68.98;101670.75;5018142;28;20126;-68
2022/05/13 04:44:14;;;;;;;21.30;4.53;;;;;;;10.68;69.04;101689.19;5019712;28;20440;-66
2022/05/13 04:46:41;;;;;;;15.88;4.18;;;;;;;10.68;69.41;101687.41;5032544;28;20050;-66
2022/05/13 04:49:08;;;;;;;20.00;4.75;;;;;;;10.84;69.08;101685.38;5020323;28;20069;-68
2022/05/13 04:51:37;;;;;;;16.83;4.38;;;;;;;11.02;68.79;101693.88;5014518;28;20041;-66
2022/05/13 04:54:05;;;;;;;15.52;4.75;;;;;;;11.16;68.74;101686.56;5024482;28;20468;-68
2022/05/13 04:56:33;;;;;;;17.48;4.72;;;;;;;11.39;68.85;101690.53;5014232;28;20535;-69
2022/05/13 04:59:01;;;;;;;22.40;5.30;;;;;;;11.65;68.01;101695.25;5015290;28;20764;-70
2022/05/13 05:01:28;;;;;;;18.27;4.47;;;;;;;11.82;67.35;101694.03;5018207;28;20042;-67
2022/05/13 05:03:55;;;;;;;34.35;5.60;;;;;;;11.96;67.25;101706.91;5013320;28;20535;-69
2022/05/13 05:06:23;;;;;;;16.23;4.40;;;;;;;12.10;66.90;101704.03;5012970;28;20070;-69
2022/05/13 05:08:53;;;;;;;17.65;4.63;;;;;;;12.29;66.55;101711.53;5012363;28;20048;-69
2022/05/13 05:11:20;;;;;;;16.13;4.60;;;;;;;12.65;66.04;101707.13;5013406;28;20049;-68
2022/05/13 05:13:51;;;;;;;20.02;3.97;;;;;;;13.34;64.83;101708.81;5027959;28;20539;-70
2022/05/13 05:16:22;;;;;;;25.25;4.68;;;;;;;14.20;62.49;101713.34;5019982;28;20038;-70
2022/05/13 05:18:50;;;;;;;17.15;4.50;;;;;;;14.84;60.99;101706.88;5027433;28;20049;-70
2022/05/13 05:21:18;;;;;;;18.60;4.97;;;;;;;15.21;59.15;101716.19;5013180;28;20045;-70
2022/05/13 05:23:48;;;;;;;27.35;5.20;;;;;;;15.10;59.24;101714.84;5012928;28;20042;-71
2022/05/13 05:26:16;;;;;;;14.73;4.40;;;;;;;14.86;59.42;101725.41;5028665;28;20042;-70
2022/05/13 05:28:44;;;;;;;12.00;4.32;;;;;;;14.62;59.43;101733.25;5030304;28;20053;-70
2022/05/13 05:31:12;;;;;;;21.80;4.43;;;;;;;14.46;59.62;101724.94;5026498;28;20906;-69
2022/05/13 05:33:42;;;;;;;37.70;6.82;;;;;;;14.36;59.75;101720.84;5015905;28;20041;-69
2022/05/13 05:36:12;;;;;;;22.48;4.45;;;;;;;14.31;59.92;101723.63;5019256;28;20100;-69
2022/05/13 05:38:40;;;;;;;17.60;4.63;;;;;;;14.38;59.72;101733.13;5019650;28;20057;-71
2022/05/13 05:41:07;;;;;;;29.27;5.10;;;;;;;14.85;59.33;101729.84;5022567;28;20036;-70
2022/05/13 05:43:36;;;;;;;20.33;4.38;;;;;;;14.97;58.95;101746.28;5010718;28;20043;-68
2022/05/13 05:46:03;;;;;;;20.17;4.70;;;;;;;15.05;58.13;101739.81;5021826;28;20045;-70
2022/05/13 05:48:31;;;;;;;26.70;5.00;;;;;;;14.89;58.50;101746.53;5015189;28;20082;-69
2022/05/13 05:50:59;;;;;;;26.50;5.05;;;;;;;14.65;58.96;101745.56;5017807;28;20042;-68
2022/05/13 05:59:07;;;;;;;21.73;4.40;;;;;;;14.27;60.54;101759.13;5013140;28;20034;-69
2022/05/13 06:01:34;;;;;;;20.02;4.35;;;;;;;14.11;60.90;101762.25;5024553;28;20046;-69
2022/05/13 06:04:03;;;;;;;30.70;6.07;;;;;;;14.04;61.05;101760.69;5024957;28;20104;-68
2022/05/13 06:06:30;;;;;;;26.67;5.57;;;;;;;14.02;61.20;101762.53;5026288;28;20045;-68
2022/05/13 06:08:59;;;;;;;20.95;5.00;;;;;;;14.05;61.52;101764.22;5029885;28;20052;-69
2022/05/13 06:11:27;;;;;;;18.38;4.63;;;;;;;14.09;61.74;101769.38;5026451;28;20047;-69
2022/05/13 06:13:58;;;;;;;29.70;5.97;;;;;;;14.12;61.17;101771.06;5015561;28;20038;-70
2022/05/13 06:16:28;;;;;;;20.42;4.88;;;;;;;14.16;61.42;101770.06;5022119;28;20042;-67
2022/05/13 06:19:00;;;;;;;26.58;4.75;;;;;;;13.98;61.97;101787.41;5013805;28;20521;-68
2022/05/13 06:21:31;;;;;;;21.55;5.00;;;;;;;13.87;62.20;101785.06;5012624;28;20047;-67
2022/05/13 06:24:00;;;;;;;17.45;4.97;;;;;;;13.94;62.23;101793.69;5020943;28;20196;-66
2022/05/13 06:26:29;;;;;;;17.75;4.72;;;;;;;13.79;62.83;101792.34;5029829;28;20478;-68
2022/05/13 06:28:56;;;;;;;19.13;5.22;;;;;;;13.72;63.14;101801.41;5023960;28;20153;-69
2022/05/13 06:31:24;;;;;;;17.08;4.90;;;;;;;13.79;63.14;101800.31;5019944;28;20046;-69
2022/05/13 06:33:52;;;;;;;18.85;5.55;;;;;;;13.76;63.68;101809.22;5026066;28;20052;-69
2022/05/13 06:36:19;;;;;;;15.40;5.90;;;;;;;13.85;63.07;101800.16;5025926;28;20064;-69
2022/05/13 06:38:47;;;;;;;24.85;6.05;;;;;;;14.00;62.66;101806.78;5022115;28;20046;-70
2022/05/13 06:41:14;;;;;;;19.05;5.30;;;;;;;14.14;62.21;101806.38;5012225;28;20042;-69
2022/05/13 06:43:41;;;;;;;21.23;5.88;;;;;;;14.23;61.94;101810.53;5011992;28;20053;-67
2022/05/13 06:46:09;;;;;;;17.67;5.22;;;;;;;14.36;61.80;101806.56;5013528;28;20043;-68
2022/05/13 06:48:37;;;;;;;20.98;6.22;;;;;;;14.46;61.42;101801.88;5013525;28;20196;-69
2022/05/13 06:51:05;;;;;;;19.55;6.47;;;;;;;14.60;61.56;101812.03;5017534;28;20133;-69
2022/05/13 06:53:33;;;;;;;28.95;6.72;;;;;;;14.57;61.68;101802.41;5012033;28;20038;-70
2022/05/13 06:56:00;;;;;;;23.27;6.35;;;;;;;14.84;60.94;101804.25;5012271;28;20081;-67
2022/05/13 06:58:27;;;;;;;21.45;6.45;;;;;;;14.95;60.53;101799.44;5011960;28;20043;-71
2022/05/13 07:00:54;;;;;;;21.67;6.30;;;;;;;15.12;60.03;101798.00;5020845;28;20077;-69
2022/05/13 07:03:22;;;;;;;16.67;5.78;;;;;;;15.27;59.40;101800.13;5031834;28;20041;-69
2022/05/13 07:05:49;;;;;;;19.85;6.35;;;;;;;15.29;59.31;101800.94;5011657;28;20850;-70
2022/05/13 07:08:16;;;;;;;23.88;6.50;;;;;;;15.38;59.25;101810.38;5011966;28;20043;-68
2022/05/13 07:10:44;;;;;;;18.02;5.68;;;;;;;15.35;59.05;101800.72;5021629;28;20030;-69
2022/05/13 07:13:15;;;;;;;14.90;5.65;;;;;;;15.49;59.04;101802.00;5029075;28;20053;-69
2022/05/13 07:15:43;;;;;;;18.73;5.97;;;;;;;15.64;58.59;101806.78;5031436;28;20523;-68
2022/05/13 07:18:11;;;;;;;21.75;6.45;;;;;;;15.75;58.16;101810.84;5031589;28;20038;-69
2022/05/13 07:20:39;;;;;;;16.30;5.63;;;;;;;15.89;57.59;101813.03;5021885;28;20038;-70
2022/05/13 07:23:06;;;;;;;24.02;6.22;;;;;;;15.98;57.06;101813.53;5011703;28;20531;-69
2022/05/13 07:25:33;;;;;;;19.95;6.65;;;;;;;15.62;58.05;101815.72;5012509;28;20439;-69
2022/05/13 07:28:00;;;;;;;20.75;6.40;;;;;;;15.59;58.01;101814.06;5015214;28;20047;-69
2022/05/13 07:30:28;;;;;;;16.83;7.10;;;;;;;15.68;57.99;101811.06;5021576;28;20050;-69
2022/05/13 07:32:55;;;;;;;21.65;7.13;;;;;;;15.87;58.17;101826.41;5034971;28;20034;-69
2022/05/13 07:35:22;;;;;;;16.55;7.03;;;;;;;15.94;58.05;101827.00;5033800;28;20049;-69
2022/05/13 07:37:50;;;;;;;23.23;6.93;;;;;;;15.95;57.21;101824.31;5020748;28;20034;-69
2022/05/13 07:43:03;;;;;;;20.08;7.30;;;;;;;16.38;56.29;101829.78;5014679;28;20050;-70
2022/05/13 07:45:32;;;;;;;15.60;6.65;;;;;;;16.66;55.58;101818.03;5022339;28;20069;-69
2022/05/13 07:48:01;;;;;;;22.55;6.57;;;;;;;17.11;54.46;101820.69;5025610;28;20034;-69
2022/05/13 07:50:30;;;;;;;16.30;7.00;;;;;;;17.62;53.57;101829.13;5034599;28;20117;-70
2022/05/13 07:53:10;;;;;;;18.33;6.80;;;;;;;17.92;52.49;101828.69;5032132;28;20105;-68
2022/05/13 07:55:37;;;;;;;12.95;6.03;;;;;;;18.20;51.86;101825.66;5032395;28;20607;-70
2022/05/13 07:58:04;;;;;;;11.52;5.28;;;;;;;18.04;51.31;101825.50;5022094;28;20042;-69
2022/05/13 08:00:36;;;;;;;14.27;6.00;;;;;;;17.77;51.81;101827.59;5031612;28;20042;-70
2022/05/13 08:03:08;;;;;;;18.48;5.95;;;;;;;17.56;52.95;101840.94;5019856;28;20061;-70
2022/05/13 08:05:46;;;;;;;13.05;5.35;;;;;;;17.36;53.05;101833.81;5014688;28;20034;-69
2022/05/13 08:08:21;;;;;;;26.13;6.13;;;;;;;17.62;52.58;101829.13;5013940;28;20420;-69
2022/05/13 08:10:55;;;;;;;16.40;5.50;;;;;;;17.98;51.51;101828.47;5013910;28;20053;-70
2022/05/13 08:13:24;;;;;;;13.50;4.87;;;;;;;18.28;50.05;101812.78;5014522;28;20041;-70
2022/05/13 08:15:51;;;;;;;13.85;5.10;;;;;;;18.34;50.75;101827.66;5014708;28;20042;-69
2022/05/13 08:18:21;;;;;;;17.60;5.38;;;;;;;18.60;50.21;101831.75;5014604;28;20600;-69
2022/05/13 08:20:49;;;;;;;10.02;4.60;;;;;;;19.00;48.82;101822.72;5014446;28;20046;-69
2022/05/13 08:23:18;;;;;;;15.05;4.57;;;;;;;19.39;48.59;101821.63;5013799;28;20062;-70
2022/05/13 08:25:47;;;;;;;15.77;5.05;;;;;;;19.91;47.17;101831.41;5024174;28;20042;-69
2022/05/13 08:28:16;;;;;;;13.90;4.30;;;;;;;20.07;46.64;101831.44;5021200;28;20054;-70
2022/05/13 08:30:44;;;;;;;10.68;3.92;;;;;;;19.92;45.84;101832.25;5014024;28;20054;-72
2022/05/13 08:33:12;;;;;;;15.35;4.30;;;;;;;19.19;47.48;101842.22;5014721;28;20046;-71
2022/05/13 08:35:46;;;;;;;12.57;4.07;;;;;;;18.82;48.34;101843.19;5015015;28;20101;-70
2022/05/13 08:38:30;;;;;;;25.40;4.50;;;;;;;18.22;47.78;101838.91;5013840;28;20042;-70
2022/05/13 08:41:08;;;;;;;9.68;3.53;;;;;;;17.97;49.14;101840.91;5014167;28;20042;-70
2022/05/13 08:43:47;;;;;;;10.10;3.65;;;;;;;18.11;48.55;101844.75;5013643;28;20046;-69
2022/05/13 08:46:40;;;;;;;12.15;3.92;;;;;;;17.82;48.94;101860.25;5014136;28;20428;-69
2022/05/13 08:49:55;;;;;;;16.17;3.75;;;;;;;17.24;50.34;101867.19;5013125;28;20050;-69
2022/05/13 08:55:44;;;;;;;11.45;4.10;;;;;;;16.55;52.06;101849.53;5031687;28;19925;-68
2022/05/13 08:58:32;;;;;;;12.95;4.35;;;;;;;16.29;52.96;101860.25;5020222;28;20038;-68
2022/05/13 09:01:04;;;;;;;12.32;4.32;;;;;;;16.13;53.86;101859.13;5013736;28;20049;-69
2022/05/13 09:03:46;;;;;;;12.82;3.58;;;;;;;16.10;54.51;101872.50;5013952;28;21017;-69
2022/05/13 09:06:36;;;;;;;10.05;3.80;;;;;;;16.13;54.75;101864.44;5027599;28;20041;-69
2022/05/13 09:09:07;;;;;;;10.50;3.65;;;;;;;16.18;54.57;101878.41;5013565;28;20046;-69
2022/05/13 09:12:11;;;;;;;6.70;3.30;;;;;;;16.12;54.64;101866.22;5013533;28;20042;-68
2022/05/13 09:14:52;;;;;;;9.27;3.63;;;;;;;16.01;54.95;101878.19;5012272;28;20046;-68
2022/05/13 09:17:33;;;;;;;22.02;4.35;;;;;;;15.68;55.63;101877.50;5013384;28;20054;-69
2022/05/13 09:20:16;;;;;;;13.93;3.78;;;;;;;15.67;55.81;101869.59;5026439;28;20042;-69
2022/05/13 09:22:54;;;;;;;15.65;3.60;;;;;;;15.83;55.70;101876.09;5027029;28;20060;-69
2022/05/13 09:25:43;;;;;;;18.67;3.95;;;;;;;16.02;54.67;101879.91;5011760;28;20050;-69
2022/05/13 09:28:13;;;;;;;17.60;3.85;;;;;;;16.26;53.79;101873.69;5032752;28;20459;-70
2022/05/13 09:30:54;;;;;;;12.68;3.65;;;;;;;16.85;52.33;101874.06;5033551;28;20551;-68
2022/05/13 09:33:32;;;;;;;9.50;3.75;;;;;;;17.46;50.72;101871.59;5027797;28;20042;-70
2022/05/13 09:36:29;;;;;;;9.98;3.28;;;;;;;17.85;49.58;101860.13;5030804;28;20038;-68
2022/05/13 09:39:23;;;;;;;17.25;3.33;;;;;;;17.79;48.98;101869.28;5024594;28;20049;-68
2022/05/13 09:41:52;;;;;;;10.80;2.83;;;;;;;17.39;49.62;101868.34;5017273;28;20062;-68
2022/05/13 09:44:26;;;;;;;15.38;3.08;;;;;;;17.03;50.22;101879.59;5022388;28;20116;-67
2022/05/13 09:47:15;;;;;;;16.00;2.90;;;;;;;16.63;51.16;101875.84;5021222;28;20054;-67
2022/05/13 09:50:02;;;;;;;22.13;3.58;;;;;;;16.74;50.94;101879.81;5031154;28;20132;-69
2022/05/13 09:52:36;;;;;;;16.42;2.88;;;;;;;16.94;50.47;101886.16;5019226;28;20051;-67
2022/05/13 09:55:24;;;;;;;13.07;2.50;;;;;;;17.06;49.90;101885.66;5015463;28;20045;-68
2022/05/13 09:57:54;;;;;;;8.27;2.40;;;;;;;17.06;50.72;101877.66;5011738;28;20125;-67
2022/05/13 10:00:32;;;;;;;26.92;4.03;;;;;;;17.66;49.75;101876.06;5013999;28;20543;-67
2022/05/13 10:03:22;;;;;;;15.35;2.97;;;;;;;18.10;49.11;101865.25;5019246;28;20046;-68
2022/05/13 10:06:15;;;;;;;14.10;2.70;;;;;;;18.56;46.46;101877.38;5026432;28;20061;-67
2022/05/13 10:08:51;;;;;;;11.23;2.60;;;;;;;18.79;46.15;101873.56;5013012;28;20054;-68
2022/05/13 10:14:33;;;;;;;23.42;3.35;;;;;;;19.25;45.07;101873.13;5015821;28;20121;-68
2022/05/13 10:17:17;;;;;;;15.15;3.60;;;;;;;19.57;45.21;101861.75;5020402;28;20519;-68
2022/05/13 10:19:57;;;;;;;28.67;3.53;;;;;;;19.94;44.08;101868.69;5032999;28;20038;-69
2022/05/13 10:22:51;;;;;;;70.00;6.20;;;;;;;19.76;43.16;101875.88;5031015;28;20061;-68
2022/05/13 10:26:01;;;;;;;15.48;3.10;;;;;;;19.28;44.34;101869.47;5029506;28;20049;-68
2022/05/13 10:29:06;;;;;;;26.70;3.60;;;;;;;19.33;44.45;101862.91;5017954;28;20042;-69
2022/05/13 10:31:42;;;;;;;14.98;2.60;;;;;;;19.86;42.55;101873.59;5032645;28;20463;-68
2022/05/13 10:34:38;;;;;;;8.45;2.20;;;;;;;19.85;41.48;101855.78;5025499;28;20046;-68
2022/05/13 10:37:14;;;;;;;9.75;2.42;;;;;;;19.26;42.40;101857.97;5012557;28;20043;-69
2022/05/13 10:39:54;;;;;;;9.48;2.20;;;;;;;19.21;42.35;101863.56;5031899;28;20046;-69
2022/05/13 10:42:39;;;;;;;7.40;1.90;;;;;;;19.24;42.42;101860.69;5031606;28;20050;-68
2022/05/13 10:45:27;;;;;;;13.63;2.42;;;;;;;18.89;42.96;101864.16;5018661;28;20117;-68
2022/05/13 10:48:05;;;;;;;7.55;2.47;;;;;;;19.14;43.01;101862.13;5012100;28;20038;-67
2022/05/13 10:50:59;;;;;;;8.52;2.33;;;;;;;19.48;43.00;101861.28;5017520;28;20053;-68
2022/05/13 10:53:39;;;;;;;15.68;2.38;;;;;;;19.29;41.24;101866.69;5025415;28;20046;-68
2022/05/13 10:56:10;;;;;;;13.23;2.70;;;;;;;19.66;42.18;101858.59;5023589;28;20042;-68
2022/05/13 10:58:55;;;;;;;8.80;1.70;;;;;;;20.02;40.64;101871.84;5015068;28;20049;-68
2022/05/13 11:01:44;;;;;;;11.23;2.00;;;;;;;20.55;37.92;101866.25;5015090;28;20091;-68
2022/05/13 11:04:20;;;;;;;5.00;1.50;;;;;;;20.91;38.04;101867.84;5030666;28;20085;-69
2022/05/13 11:07:25;;;;;;;6.32;1.55;;;;;;;20.90;36.99;101876.81;5016578;28;20108;-68
2022/05/13 11:10:08;;;;;;;6.78;1.65;;;;;;;20.80;36.90;101870.25;5015037;28;20073;-69
2022/05/13 11:13:19;;;;;;;8.85;1.90;;;;;;;20.56;37.92;101867.13;5034150;28;20049;-68
2022/05/13 11:16:11;;;;;;;5.03;1.83;;;;;;;19.95;39.29;101867.75;5034865;28;20483;-67
2022/05/13 11:19:15;;;;;;;9.95;2.33;;;;;;;19.57;39.31;101875.13;5035417;28;20042;-68
2022/05/13 11:22:03;;;;;;;10.03;2.00;;;;;;;20.00;40.10;101868.38;5017602;28;20823;-69
2022/05/13 11:28:39;;;;;;;6.68;1.75;;;;;;;19.75;39.78;101857.22;5015032;28;20050;-68
2022/05/13 11:31:40;;;;;;;6.68;1.80;;;;;;;19.94;40.38;101873.19;5014603;28;20035;-68
2022/05/13 11:34:44;;;;;;;7.50;1.60;;;;;;;20.61;38.32;101867.72;5022096;28;20042;-68
2022/05/13 11:37:13;;;;;;;7.57;1.77;;;;;;;21.29;38.49;101865.66;5034760;28;20046;-68
2022/05/13 11:39:42;;;;;;;10.63;2.10;;;;;;;21.47;37.75;101859.19;5033385;28;20046;-68
2022/05/13 11:43:18;;;;;;;26.25;2.65;;;;;;;21.60;37.61;101858.47;5034887;28;20069;-68
2022/05/13 11:45:56;;;;;;;6.90;1.98;;;;;;;21.09;36.92;101867.69;5018591;28;20050;-68
2022/05/13 11:48:30;;;;;;;6.45;1.90;;;;;;;21.50;36.99;101867.06;5014939;28;20093;-67
2022/05/13 11:51:18;;;;;;;;;;;;;;;21.56;36.69;101863.13;5025818;28;20049;-67
2022/05/13 11:53:51;;;;;;;6.78;1.90;;;;;;;21.49;36.34;101869.84;5032607;28;19932;-68
2022/05/13 11:56:25;;;;;;;7.43;2.22;;;;;;;21.04;36.58;101876.00;5019567;28;20046;-68
2022/05/13 11:59:04;;;;;;;9.02;2.33;;;;;;;20.91;37.54;101873.19;5031973;28;20038;-68
2022/05/13 12:01:43;;;;;;;5.57;1.92;;;;;;;20.87;37.38;101874.31;5020664;28;20042;-67
2022/05/13 12:04:13;;;;;;;9.80;1.95;;;;;;;20.98;37.19;101873.69;5020518;28;20042;-69
2022/05/13 12:06:49;;;;;;;12.05;2.20;;;;;;;21.81;36.26;101865.22;5016148;28;20101;-69
2022/05/13 12:09:23;;;;;;;7.45;1.55;;;;;;;22.82;34.51;101866.91;5020117;28;20168;-69
2022/05/13 12:12:11;;;;;;;12.13;1.80;;;;;;;22.61;34.43;101870.06;5039409;28;20038;-69
2022/05/13 12:15:09;;;;;;;11.43;1.95;;;;;;;22.44;34.01;101865.78;5049380;28;20042;-69
2022/05/13 12:18:02;;;;;;;7.70;1.58;;;;;;;22.76;33.79;101856.56;5045842;28;20051;-69
2022/05/13 12:20:53;;;;;;;8.48;1.50;;;;;;;23.23;34.26;101865.13;5057194;28;20455;-69